sensor_id;sensor_type;location;lat;lon;timestamp;temperature;humidity
65034;DHT22;51601;51.356;12.458;2022-07-05T00:00:42;18.50;55.20
65034;DHT22;51601;51.356;12.458;2022-07-05T00:04:56;18.50;55.70
65034;DHT22;51601;51.356;12.458;2022-07-05T00:09:10;18.40;56.00
65034;DHT22;51601;51.356;12.458;2022-07-05T00:13:24;18.30;56.30
65034;DHT22;51601;51.356;12.458;2022-07-05T00:17:39;18.30;56.50
65034;DHT22;51601;51.356;12.458;2022-07-05T00:21:53;18.20;56.60
65034;DHT22;51601;51.356;12.458;2022-07-05T00:26:07;18.20;56.70
65034;DHT22;51601;51.356;12.458;2022-07-05T00:30:21;18.10;56.70
65034;DHT22;51601;51.356;12.458;2022-07-05T00:34:36;18.10;56.80
65034;DHT22;51601;51.356;12.458;2022-07-05T00:38:50;18.00;56.90
65034;DHT22;51601;51.356;12.458;2022-07-05T00:43:06;17.90;57.00
65034;DHT22;51601;51.356;12.458;2022-07-05T00:47:20;17.90;57.60
65034;DHT22;51601;51.356;12.458;2022-07-05T00:51:37;17.80;57.90
65034;DHT22;51601;51.356;12.458;2022-07-05T00:56:11;17.70;58.80
65034;DHT22;51601;51.356;12.458;2022-07-05T01:00:26;17.70;59.70
65034;DHT22;51601;51.356;12.458;2022-07-05T01:04:39;17.70;60.30
65034;DHT22;51601;51.356;12.458;2022-07-05T01:08:55;17.60;60.60
65034;DHT22;51601;51.356;12.458;2022-07-05T01:13:10;17.50;60.50
65034;DHT22;51601;51.356;12.458;2022-07-05T01:17:23;17.50;60.20
65034;DHT22;51601;51.356;12.458;2022-07-05T01:21:40;17.40;60.20
65034;DHT22;51601;51.356;12.458;2022-07-05T01:25:56;17.40;60.10
65034;DHT22;51601;51.356;12.458;2022-07-05T01:30:12;17.30;59.80
65034;DHT22;51601;51.356;12.458;2022-07-05T01:34:27;17.20;59.50
65034;DHT22;51601;51.356;12.458;2022-07-05T01:38:41;17.10;59.50
65034;DHT22;51601;51.356;12.458;2022-07-05T01:42:56;17.10;59.50
65034;DHT22;51601;51.356;12.458;2022-07-05T01:47:10;17.00;59.40
65034;DHT22;51601;51.356;12.458;2022-07-05T01:51:26;17.00;59.80
65034;DHT22;51601;51.356;12.458;2022-07-05T01:55:43;17.00;60.00
65034;DHT22;51601;51.356;12.458;2022-07-05T01:59:59;16.90;60.40
65034;DHT22;51601;51.356;12.458;2022-07-05T02:04:13;16.90;60.70
65034;DHT22;51601;51.356;12.458;2022-07-05T02:08:29;16.80;60.90
65034;DHT22;51601;51.356;12.458;2022-07-05T02:12:43;16.80;61.20
65034;DHT22;51601;51.356;12.458;2022-07-05T02:16:58;16.70;61.20
65034;DHT22;51601;51.356;12.458;2022-07-05T02:21:14;16.60;61.40
65034;DHT22;51601;51.356;12.458;2022-07-05T02:25:29;16.60;61.70
65034;DHT22;51601;51.356;12.458;2022-07-05T02:29:47;16.50;62.00
65034;DHT22;51601;51.356;12.458;2022-07-05T02:34:07;16.50;62.30
65034;DHT22;51601;51.356;12.458;2022-07-05T02:38:23;16.50;62.80
65034;DHT22;51601;51.356;12.458;2022-07-05T02:42:37;16.40;62.90
65034;DHT22;51601;51.356;12.458;2022-07-05T02:46:55;16.40;62.80
65034;DHT22;51601;51.356;12.458;2022-07-05T02:51:14;16.30;63.10
65034;DHT22;51601;51.356;12.458;2022-07-05T02:55:32;16.30;63.00
65034;DHT22;51601;51.356;12.458;2022-07-05T02:59:47;16.20;63.00
65034;DHT22;51601;51.356;12.458;2022-07-05T03:04:01;16.20;63.00
65034;DHT22;51601;51.356;12.458;2022-07-05T03:08:18;16.20;63.10
65034;DHT22;51601;51.356;12.458;2022-07-05T03:12:33;16.20;62.70
65034;DHT22;51601;51.356;12.458;2022-07-05T03:16:48;16.20;62.60
65034;DHT22;51601;51.356;12.458;2022-07-05T03:21:05;16.20;62.90
65034;DHT22;51601;51.356;12.458;2022-07-05T03:25:22;16.30;62.90
65034;DHT22;51601;51.356;12.458;2022-07-05T03:29:37;16.40;63.10
65034;DHT22;51601;51.356;12.458;2022-07-05T03:33:51;16.80;63.20
65034;DHT22;51601;51.356;12.458;2022-07-05T03:38:07;17.50;62.50
65034;DHT22;51601;51.356;12.458;2022-07-05T03:42:23;18.40;61.20
65034;DHT22;51601;51.356;12.458;2022-07-05T03:46:37;19.30;59.60
65034;DHT22;51601;51.356;12.458;2022-07-05T03:50:51;20.20;57.60
65034;DHT22;51601;51.356;12.458;2022-07-05T03:55:05;21.10;55.50
65034;DHT22;51601;51.356;12.458;2022-07-05T03:59:21;22.00;53.30
65034;DHT22;51601;51.356;12.458;2022-07-05T04:03:35;22.80;51.10
65034;DHT22;51601;51.356;12.458;2022-07-05T04:07:55;23.70;49.50
65034;DHT22;51601;51.356;12.458;2022-07-05T04:12:17;24.50;47.70
65034;DHT22;51601;51.356;12.458;2022-07-05T04:16:33;25.40;45.80
65034;DHT22;51601;51.356;12.458;2022-07-05T04:20:48;26.10;44.50
65034;DHT22;51601;51.356;12.458;2022-07-05T04:25:02;26.90;43.20
65034;DHT22;51601;51.356;12.458;2022-07-05T04:29:43;27.50;41.80
65034;DHT22;51601;51.356;12.458;2022-07-05T04:34:00;28.10;40.70
65034;DHT22;51601;51.356;12.458;2022-07-05T04:38:18;28.60;39.60
65034;DHT22;51601;51.356;12.458;2022-07-05T04:42:32;29.20;38.50
65034;DHT22;51601;51.356;12.458;2022-07-05T04:46:47;29.70;37.60
65034;DHT22;51601;51.356;12.458;2022-07-05T04:51:04;30.30;36.60
65034;DHT22;51601;51.356;12.458;2022-07-05T04:55:18;30.70;35.40
65034;DHT22;51601;51.356;12.458;2022-07-05T04:59:33;31.20;34.70
65034;DHT22;51601;51.356;12.458;2022-07-05T05:03:47;31.60;34.10
65034;DHT22;51601;51.356;12.458;2022-07-05T05:08:02;32.00;33.50
65034;DHT22;51601;51.356;12.458;2022-07-05T05:12:16;32.40;32.90
65034;DHT22;51601;51.356;12.458;2022-07-05T05:16:30;32.70;33.30
65034;DHT22;51601;51.356;12.458;2022-07-05T05:20:44;33.10;31.80
65034;DHT22;51601;51.356;12.458;2022-07-05T05:25:00;33.40;31.20
65034;DHT22;51601;51.356;12.458;2022-07-05T05:29:14;33.80;31.00
65034;DHT22;51601;51.356;12.458;2022-07-05T05:33:29;34.30;30.60
65034;DHT22;51601;51.356;12.458;2022-07-05T05:37:47;34.80;29.90
65034;DHT22;51601;51.356;12.458;2022-07-05T05:42:03;35.10;29.50
65034;DHT22;51601;51.356;12.458;2022-07-05T05:46:18;35.40;29.30
65034;DHT22;51601;51.356;12.458;2022-07-05T05:50:33;35.70;28.90
65034;DHT22;51601;51.356;12.458;2022-07-05T05:54:47;35.80;28.80
65034;DHT22;51601;51.356;12.458;2022-07-05T05:59:03;36.20;28.50
65034;DHT22;51601;51.356;12.458;2022-07-05T06:03:17;36.70;27.90
65034;DHT22;51601;51.356;12.458;2022-07-05T06:07:43;37.30;27.50
65034;DHT22;51601;51.356;12.458;2022-07-05T06:11:57;37.60;27.20
65034;DHT22;51601;51.356;12.458;2022-07-05T06:16:12;37.70;27.00
65034;DHT22;51601;51.356;12.458;2022-07-05T06:20:28;37.70;26.80
65034;DHT22;51601;51.356;12.458;2022-07-05T06:24:43;37.90;26.60
65034;DHT22;51601;51.356;12.458;2022-07-05T06:29:17;38.10;26.40
65034;DHT22;51601;51.356;12.458;2022-07-05T06:33:32;38.30;26.30
65034;DHT22;51601;51.356;12.458;2022-07-05T06:37:47;38.50;26.10
65034;DHT22;51601;51.356;12.458;2022-07-05T06:42:04;38.80;25.90
65034;DHT22;51601;51.356;12.458;2022-07-05T06:46:18;39.20;25.70
65034;DHT22;51601;51.356;12.458;2022-07-05T06:50:36;39.70;25.30
65034;DHT22;51601;51.356;12.458;2022-07-05T06:54:50;39.60;25.20
65034;DHT22;51601;51.356;12.458;2022-07-05T06:59:04;39.40;25.30
65034;DHT22;51601;51.356;12.458;2022-07-05T07:03:20;39.40;25.30
65034;DHT22;51601;51.356;12.458;2022-07-05T07:07:56;39.80;25.10
65034;DHT22;51601;51.356;12.458;2022-07-05T07:12:27;40.30;24.80
65034;DHT22;51601;51.356;12.458;2022-07-05T07:16:44;40.80;24.50
65034;DHT22;51601;51.356;12.458;2022-07-05T07:20:57;41.20;24.30
65034;DHT22;51601;51.356;12.458;2022-07-05T07:25:13;41.50;24.00
65034;DHT22;51601;51.356;12.458;2022-07-05T07:29:27;41.40;23.60
65034;DHT22;51601;51.356;12.458;2022-07-05T07:33:41;41.00;24.00
65034;DHT22;51601;51.356;12.458;2022-07-05T07:37:56;40.80;24.10
65034;DHT22;51601;51.356;12.458;2022-07-05T07:42:12;40.60;24.10
65034;DHT22;51601;51.356;12.458;2022-07-05T07:46:26;40.40;24.30
65034;DHT22;51601;51.356;12.458;2022-07-05T07:50:40;40.50;24.30
65034;DHT22;51601;51.356;12.458;2022-07-05T07:54:54;41.00;24.10
65034;DHT22;51601;51.356;12.458;2022-07-05T07:59:10;41.30;23.70
65034;DHT22;51601;51.356;12.458;2022-07-05T08:03:24;41.50;23.50
65034;DHT22;51601;51.356;12.458;2022-07-05T08:07:37;41.20;23.50
65034;DHT22;51601;51.356;12.458;2022-07-05T08:11:51;41.10;23.40
65034;DHT22;51601;51.356;12.458;2022-07-05T08:16:06;41.40;23.50
65034;DHT22;51601;51.356;12.458;2022-07-05T08:20:20;41.20;23.30
65034;DHT22;51601;51.356;12.458;2022-07-05T08:24:51;41.10;23.50
65034;DHT22;51601;51.356;12.458;2022-07-05T08:29:07;41.30;23.40
65034;DHT22;51601;51.356;12.458;2022-07-05T08:33:24;41.80;23.00
65034;DHT22;51601;51.356;12.458;2022-07-05T08:37:38;42.30;22.40
65034;DHT22;51601;51.356;12.458;2022-07-05T08:41:51;42.10;22.40
65034;DHT22;51601;51.356;12.458;2022-07-05T08:46:06;41.70;22.20
65034;DHT22;51601;51.356;12.458;2022-07-05T08:50:26;41.50;22.10
65034;DHT22;51601;51.356;12.458;2022-07-05T08:54:42;41.00;22.20
65034;DHT22;51601;51.356;12.458;2022-07-05T08:58:59;40.60;22.30
65034;DHT22;51601;51.356;12.458;2022-07-05T09:03:14;40.50;22.70
65034;DHT22;51601;51.356;12.458;2022-07-05T09:07:29;40.70;22.60
65034;DHT22;51601;51.356;12.458;2022-07-05T09:11:48;41.20;22.40
65034;DHT22;51601;51.356;12.458;2022-07-05T09:16:23;41.40;22.20
65034;DHT22;51601;51.356;12.458;2022-07-05T09:20:37;41.60;22.00
65034;DHT22;51601;51.356;12.458;2022-07-05T09:24:52;41.60;21.80
65034;DHT22;51601;51.356;12.458;2022-07-05T09:29:08;41.40;21.80
65034;DHT22;51601;51.356;12.458;2022-07-05T09:33:48;41.80;21.80
65034;DHT22;51601;51.356;12.458;2022-07-05T09:38:03;42.40;21.60
65034;DHT22;51601;51.356;12.458;2022-07-05T09:42:20;42.90;21.30
65034;DHT22;51601;51.356;12.458;2022-07-05T09:46:36;42.80;21.20
65034;DHT22;51601;51.356;12.458;2022-07-05T09:50:52;41.50;21.30
65034;DHT22;51601;51.356;12.458;2022-07-05T09:55:37;40.60;22.10
65034;DHT22;51601;51.356;12.458;2022-07-05T09:59:59;41.00;22.00
65034;DHT22;51601;51.356;12.458;2022-07-05T10:04:17;42.00;21.60
65034;DHT22;51601;51.356;12.458;2022-07-05T10:08:32;42.80;21.30
65034;DHT22;51601;51.356;12.458;2022-07-05T10:12:47;42.40;21.30
65034;DHT22;51601;51.356;12.458;2022-07-05T10:17:05;41.10;21.80
65034;DHT22;51601;51.356;12.458;2022-07-05T10:21:20;39.50;22.20
65034;DHT22;51601;51.356;12.458;2022-07-05T10:25:35;37.90;23.10
65034;DHT22;51601;51.356;12.458;2022-07-05T10:29:50;36.80;24.20
65034;DHT22;51601;51.356;12.458;2022-07-05T10:34:06;37.20;24.20
65034;DHT22;51601;51.356;12.458;2022-07-05T10:38:43;38.30;24.30
65034;DHT22;51601;51.356;12.458;2022-07-05T10:42:59;39.90;22.70
65034;DHT22;51601;51.356;12.458;2022-07-05T10:47:13;41.00;22.20
65034;DHT22;51601;51.356;12.458;2022-07-05T10:51:35;41.30;21.90
65034;DHT22;51601;51.356;12.458;2022-07-05T10:55:57;40.10;22.30
65034;DHT22;51601;51.356;12.458;2022-07-05T11:00:12;38.30;23.10
65034;DHT22;51601;51.356;12.458;2022-07-05T11:04:29;37.90;23.70
65034;DHT22;51601;51.356;12.458;2022-07-05T11:09:18;39.00;23.10
65034;DHT22;51601;51.356;12.458;2022-07-05T11:13:36;40.40;22.40
65034;DHT22;51601;51.356;12.458;2022-07-05T11:18:17;40.50;22.40
65034;DHT22;51601;51.356;12.458;2022-07-05T11:22:37;39.10;22.70
65034;DHT22;51601;51.356;12.458;2022-07-05T11:26:55;38.70;23.20
65034;DHT22;51601;51.356;12.458;2022-07-05T11:31:11;39.20;22.70
65034;DHT22;51601;51.356;12.458;2022-07-05T11:35:31;39.50;22.60
65034;DHT22;51601;51.356;12.458;2022-07-05T11:39:47;40.20;22.30
65034;DHT22;51601;51.356;12.458;2022-07-05T11:44:22;40.30;21.90
65034;DHT22;51601;51.356;12.458;2022-07-05T11:48:57;39.80;22.20
65034;DHT22;51601;51.356;12.458;2022-07-05T11:53:12;40.00;22.30
65034;DHT22;51601;51.356;12.458;2022-07-05T11:57:58;39.50;22.30
65034;DHT22;51601;51.356;12.458;2022-07-05T12:02:12;37.70;22.80
65034;DHT22;51601;51.356;12.458;2022-07-05T12:06:26;36.10;23.60
65034;DHT22;51601;51.356;12.458;2022-07-05T12:10:47;34.90;24.60
65034;DHT22;51601;51.356;12.458;2022-07-05T12:15:27;33.90;25.10
65034;DHT22;51601;51.356;12.458;2022-07-05T12:19:41;33.00;25.40
65034;DHT22;51601;51.356;12.458;2022-07-05T12:23:55;32.40;26.00
65034;DHT22;51601;51.356;12.458;2022-07-05T12:28:10;31.90;26.60
65034;DHT22;51601;51.356;12.458;2022-07-05T12:32:24;31.50;27.20
65034;DHT22;51601;51.356;12.458;2022-07-05T12:36:42;31.20;27.50
65034;DHT22;51601;51.356;12.458;2022-07-05T12:40:57;30.90;27.60
65034;DHT22;51601;51.356;12.458;2022-07-05T12:45:16;30.70;27.90
65034;DHT22;51601;51.356;12.458;2022-07-05T12:49:52;30.50;28.10
65034;DHT22;51601;51.356;12.458;2022-07-05T12:54:07;30.40;28.20
65034;DHT22;51601;51.356;12.458;2022-07-05T12:58:49;30.30;28.40
65034;DHT22;51601;51.356;12.458;2022-07-05T13:03:04;30.30;28.40
65034;DHT22;51601;51.356;12.458;2022-07-05T13:07:25;30.30;28.40
65034;DHT22;51601;51.356;12.458;2022-07-05T13:11:50;30.40;28.60
65034;DHT22;51601;51.356;12.458;2022-07-05T13:16:04;30.40;28.80
65034;DHT22;51601;51.356;12.458;2022-07-05T13:20:21;30.40;29.10
65034;DHT22;51601;51.356;12.458;2022-07-05T13:24:36;30.30;29.20
65034;DHT22;51601;51.356;12.458;2022-07-05T13:28:50;30.20;29.20
65034;DHT22;51601;51.356;12.458;2022-07-05T13:33:04;30.10;29.20
65034;DHT22;51601;51.356;12.458;2022-07-05T13:37:22;30.10;29.20
65034;DHT22;51601;51.356;12.458;2022-07-05T13:41:36;30.20;29.10
65034;DHT22;51601;51.356;12.458;2022-07-05T13:45:50;30.30;28.90
65034;DHT22;51601;51.356;12.458;2022-07-05T13:50:04;30.30;28.90
65034;DHT22;51601;51.356;12.458;2022-07-05T13:54:37;30.40;29.20
65034;DHT22;51601;51.356;12.458;2022-07-05T13:58:52;30.60;29.20
65034;DHT22;51601;51.356;12.458;2022-07-05T14:03:06;30.70;28.40
65034;DHT22;51601;51.356;12.458;2022-07-05T14:07:20;30.70;28.40
65034;DHT22;51601;51.356;12.458;2022-07-05T14:11:35;30.70;28.20
65034;DHT22;51601;51.356;12.458;2022-07-05T14:15:51;30.80;28.10
65034;DHT22;51601;51.356;12.458;2022-07-05T14:20:07;30.70;28.10
65034;DHT22;51601;51.356;12.458;2022-07-05T14:24:22;30.60;28.40
65034;DHT22;51601;51.356;12.458;2022-07-05T14:28:38;30.40;28.70
65034;DHT22;51601;51.356;12.458;2022-07-05T14:32:51;30.40;29.20
65034;DHT22;51601;51.356;12.458;2022-07-05T14:37:05;30.30;29.20
65034;DHT22;51601;51.356;12.458;2022-07-05T14:41:20;30.00;29.50
65034;DHT22;51601;51.356;12.458;2022-07-05T14:45:35;29.70;29.90
65034;DHT22;51601;51.356;12.458;2022-07-05T14:49:50;29.50;30.40
65034;DHT22;51601;51.356;12.458;2022-07-05T14:54:04;29.40;30.30
65034;DHT22;51601;51.356;12.458;2022-07-05T14:58:18;29.30;30.20
65034;DHT22;51601;51.356;12.458;2022-07-05T15:02:33;29.10;30.60
65034;DHT22;51601;51.356;12.458;2022-07-05T15:06:47;28.90;30.70
65034;DHT22;51601;51.356;12.458;2022-07-05T15:11:05;28.90;31.00
65034;DHT22;51601;51.356;12.458;2022-07-05T15:15:19;28.80;31.00
65034;DHT22;51601;51.356;12.458;2022-07-05T15:19:34;28.80;31.50
65034;DHT22;51601;51.356;12.458;2022-07-05T15:23:51;28.90;31.70
65034;DHT22;51601;51.356;12.458;2022-07-05T15:28:25;29.00;32.00
65034;DHT22;51601;51.356;12.458;2022-07-05T15:32:39;28.90;32.10
65034;DHT22;51601;51.356;12.458;2022-07-05T15:36:54;29.00;32.00
65034;DHT22;51601;51.356;12.458;2022-07-05T15:41:08;28.80;32.00
65034;DHT22;51601;51.356;12.458;2022-07-05T15:45:22;28.60;32.30
65034;DHT22;51601;51.356;12.458;2022-07-05T15:49:36;28.40;32.60
65034;DHT22;51601;51.356;12.458;2022-07-05T15:53:54;28.20;33.80
65034;DHT22;51601;51.356;12.458;2022-07-05T15:58:07;28.30;33.10
65034;DHT22;51601;51.356;12.458;2022-07-05T16:02:21;28.30;33.00
65034;DHT22;51601;51.356;12.458;2022-07-05T16:06:35;28.30;33.10
65034;DHT22;51601;51.356;12.458;2022-07-05T16:10:51;28.30;33.30
65034;DHT22;51601;51.356;12.458;2022-07-05T16:15:06;28.30;33.10
65034;DHT22;51601;51.356;12.458;2022-07-05T16:19:20;28.30;33.20
65034;DHT22;51601;51.356;12.458;2022-07-05T16:23:36;28.20;33.10
65034;DHT22;51601;51.356;12.458;2022-07-05T16:27:51;28.10;33.50
65034;DHT22;51601;51.356;12.458;2022-07-05T16:32:06;27.90;33.60
65034;DHT22;51601;51.356;12.458;2022-07-05T16:36:22;27.80;33.70
65034;DHT22;51601;51.356;12.458;2022-07-05T16:40:36;27.70;34.30
65034;DHT22;51601;51.356;12.458;2022-07-05T16:44:52;27.50;34.80
65034;DHT22;51601;51.356;12.458;2022-07-05T16:49:11;27.30;35.20
65034;DHT22;51601;51.356;12.458;2022-07-05T16:53:25;27.20;35.50
65034;DHT22;51601;51.356;12.458;2022-07-05T16:57:39;27.10;35.70
65034;DHT22;51601;51.356;12.458;2022-07-05T17:01:54;26.80;35.90
65034;DHT22;51601;51.356;12.458;2022-07-05T17:06:08;26.60;36.40
65034;DHT22;51601;51.356;12.458;2022-07-05T17:10:23;26.40;36.70
65034;DHT22;51601;51.356;12.458;2022-07-05T17:14:37;26.10;37.00
65034;DHT22;51601;51.356;12.458;2022-07-05T17:18:54;26.00;37.20
65034;DHT22;51601;51.356;12.458;2022-07-05T17:23:09;25.90;37.50
65034;DHT22;51601;51.356;12.458;2022-07-05T17:27:23;25.80;37.50
65034;DHT22;51601;51.356;12.458;2022-07-05T17:31:37;25.70;37.50
65034;DHT22;51601;51.356;12.458;2022-07-05T17:35:52;25.70;37.50
65034;DHT22;51601;51.356;12.458;2022-07-05T17:40:07;25.60;37.60
65034;DHT22;51601;51.356;12.458;2022-07-05T17:44:21;25.60;37.50
65034;DHT22;51601;51.356;12.458;2022-07-05T17:48:35;25.50;37.30
65034;DHT22;51601;51.356;12.458;2022-07-05T17:52:50;25.50;37.40
65034;DHT22;51601;51.356;12.458;2022-07-05T17:57:04;25.40;37.40
65034;DHT22;51601;51.356;12.458;2022-07-05T18:01:18;25.30;37.50
65034;DHT22;51601;51.356;12.458;2022-07-05T18:05:33;25.10;37.60
65034;DHT22;51601;51.356;12.458;2022-07-05T18:09:48;25.00;37.50
65034;DHT22;51601;51.356;12.458;2022-07-05T18:14:02;24.90;37.30
65034;DHT22;51601;51.356;12.458;2022-07-05T18:18:16;24.80;37.30
65034;DHT22;51601;51.356;12.458;2022-07-05T18:22:30;24.70;37.50
65034;DHT22;51601;51.356;12.458;2022-07-05T18:26:45;24.60;37.60
65034;DHT22;51601;51.356;12.458;2022-07-05T18:31:19;24.50;37.70
65034;DHT22;51601;51.356;12.458;2022-07-05T18:35:35;24.40;37.80
65034;DHT22;51601;51.356;12.458;2022-07-05T18:39:51;24.20;37.70
65034;DHT22;51601;51.356;12.458;2022-07-05T18:44:10;24.10;37.70
65034;DHT22;51601;51.356;12.458;2022-07-05T18:48:23;24.00;38.60
65034;DHT22;51601;51.356;12.458;2022-07-05T18:52:37;23.80;37.90
65034;DHT22;51601;51.356;12.458;2022-07-05T18:56:51;23.70;37.90
65034;DHT22;51601;51.356;12.458;2022-07-05T19:01:12;23.50;37.90
65034;DHT22;51601;51.356;12.458;2022-07-05T19:05:26;23.40;37.90
65034;DHT22;51601;51.356;12.458;2022-07-05T19:09:40;23.20;38.00
65034;DHT22;51601;51.356;12.458;2022-07-05T19:14:11;23.10;38.20
65034;DHT22;51601;51.356;12.458;2022-07-05T19:18:27;22.90;38.30
65034;DHT22;51601;51.356;12.458;2022-07-05T19:22:42;22.80;38.30
65034;DHT22;51601;51.356;12.458;2022-07-05T19:26:56;22.60;38.50
65034;DHT22;51601;51.356;12.458;2022-07-05T19:31:12;22.60;38.70
65034;DHT22;51601;51.356;12.458;2022-07-05T19:35:27;22.50;39.50
65034;DHT22;51601;51.356;12.458;2022-07-05T19:39:41;22.50;38.70
65034;DHT22;51601;51.356;12.458;2022-07-05T19:43:55;22.50;38.60
65034;DHT22;51601;51.356;12.458;2022-07-05T19:48:10;22.50;38.50
65034;DHT22;51601;51.356;12.458;2022-07-05T19:52:25;22.50;38.60
65034;DHT22;51601;51.356;12.458;2022-07-05T19:56:39;22.40;38.50
65034;DHT22;51601;51.356;12.458;2022-07-05T20:00:53;22.30;38.60
65034;DHT22;51601;51.356;12.458;2022-07-05T20:05:07;22.20;38.80
65034;DHT22;51601;51.356;12.458;2022-07-05T20:09:23;22.20;39.10
65034;DHT22;51601;51.356;12.458;2022-07-05T20:13:37;22.10;39.50
65034;DHT22;51601;51.356;12.458;2022-07-05T20:17:51;21.90;39.80
65034;DHT22;51601;51.356;12.458;2022-07-05T20:22:06;21.90;39.80
65034;DHT22;51601;51.356;12.458;2022-07-05T20:26:21;21.80;40.00
65034;DHT22;51601;51.356;12.458;2022-07-05T20:30:35;21.70;40.20
65034;DHT22;51601;51.356;12.458;2022-07-05T20:34:49;21.80;40.40
65034;DHT22;51601;51.356;12.458;2022-07-05T20:39:04;21.80;40.30
65034;DHT22;51601;51.356;12.458;2022-07-05T20:43:19;21.80;40.10
65034;DHT22;51601;51.356;12.458;2022-07-05T20:47:35;21.90;40.20
65034;DHT22;51601;51.356;12.458;2022-07-05T20:51:50;21.90;40.20
65034;DHT22;51601;51.356;12.458;2022-07-05T20:56:04;21.90;40.20
65034;DHT22;51601;51.356;12.458;2022-07-05T21:00:20;21.90;40.20
65034;DHT22;51601;51.356;12.458;2022-07-05T21:04:34;21.90;40.30
65034;DHT22;51601;51.356;12.458;2022-07-05T21:08:48;21.90;40.20
65034;DHT22;51601;51.356;12.458;2022-07-05T21:13:02;21.90;40.20
65034;DHT22;51601;51.356;12.458;2022-07-05T21:17:17;21.90;41.00
65034;DHT22;51601;51.356;12.458;2022-07-05T21:21:31;21.90;40.40
65034;DHT22;51601;51.356;12.458;2022-07-05T21:25:46;21.90;40.40
65034;DHT22;51601;51.356;12.458;2022-07-05T21:30:00;21.90;40.30
65034;DHT22;51601;51.356;12.458;2022-07-05T21:34:15;22.00;40.30
65034;DHT22;51601;51.356;12.458;2022-07-05T21:38:29;22.00;40.20
65034;DHT22;51601;51.356;12.458;2022-07-05T21:42:43;22.00;40.00
65034;DHT22;51601;51.356;12.458;2022-07-05T21:46:57;22.10;40.00
65034;DHT22;51601;51.356;12.458;2022-07-05T21:51:12;22.10;40.00
65034;DHT22;51601;51.356;12.458;2022-07-05T21:55:26;22.10;40.00
65034;DHT22;51601;51.356;12.458;2022-07-05T21:59:40;22.20;39.90
65034;DHT22;51601;51.356;12.458;2022-07-05T22:04:23;22.20;39.80
65034;DHT22;51601;51.356;12.458;2022-07-05T22:08:43;22.20;39.60
65034;DHT22;51601;51.356;12.458;2022-07-05T22:12:57;22.20;39.60
65034;DHT22;51601;51.356;12.458;2022-07-05T22:17:11;22.20;39.60
65034;DHT22;51601;51.356;12.458;2022-07-05T22:21:25;22.20;39.70
65034;DHT22;51601;51.356;12.458;2022-07-05T22:25:40;22.20;39.80
65034;DHT22;51601;51.356;12.458;2022-07-05T22:29:55;22.30;39.70
65034;DHT22;51601;51.356;12.458;2022-07-05T22:34:09;22.30;39.80
65034;DHT22;51601;51.356;12.458;2022-07-05T22:38:22;22.20;40.00
65034;DHT22;51601;51.356;12.458;2022-07-05T22:42:40;22.20;40.20
65034;DHT22;51601;51.356;12.458;2022-07-05T22:46:54;22.10;40.30
65034;DHT22;51601;51.356;12.458;2022-07-05T22:51:08;22.10;40.50
65034;DHT22;51601;51.356;12.458;2022-07-05T22:55:21;22.00;40.70
65034;DHT22;51601;51.356;12.458;2022-07-05T22:59:38;21.90;40.80
65034;DHT22;51601;51.356;12.458;2022-07-05T23:03:52;22.00;41.00
65034;DHT22;51601;51.356;12.458;2022-07-05T23:08:07;21.90;41.00
65034;DHT22;51601;51.356;12.458;2022-07-05T23:12:21;21.90;40.90
65034;DHT22;51601;51.356;12.458;2022-07-05T23:16:36;21.90;41.10
65034;DHT22;51601;51.356;12.458;2022-07-05T23:20:50;21.90;41.40
65034;DHT22;51601;51.356;12.458;2022-07-05T23:25:04;21.60;46.80
65034;DHT22;51601;51.356;12.458;2022-07-05T23:29:18;21.00;48.70
65034;DHT22;51601;51.356;12.458;2022-07-05T23:33:34;20.60;50.20
65034;DHT22;51601;51.356;12.458;2022-07-05T23:37:48;20.40;50.00
65034;DHT22;51601;51.356;12.458;2022-07-05T23:42:02;20.40;49.50
65034;DHT22;51601;51.356;12.458;2022-07-05T23:46:16;20.50;48.70
65034;DHT22;51601;51.356;12.458;2022-07-05T23:50:32;20.60;48.30
65034;DHT22;51601;51.356;12.458;2022-07-05T23:54:45;20.60;47.80
65034;DHT22;51601;51.356;12.458;2022-07-05T23:58:59;20.70;47.70
